Time;durP1;ratioP1;P1;durP2;ratioP2;P2;SDS_P1;SDS_P2;PMS_P1;PMS_P2;Temp;Humidity;BMP_temperature;BMP_pressure;BME280_temperature;BME280_humidity;BME280_pressure;Samples;Min_cycle;Max_cycle;Signal;HPM_P1;HPM_P2
2022/01/22 00:02:24;;;;;;;12.98;4.57;;;4.50;99.90;;;;;;4941854;28;20119;-61
2022/01/22 00:04:50;;;;;;;27.83;14.35;;;4.50;99.90;;;;;;4945232;28;20066;-61
2022/01/22 00:07:16;;;;;;;10.00;5.10;;;4.50;99.90;;;;;;4943579;28;20095;-62
2022/01/22 00:09:50;;;;;;;9.13;5.07;;;4.50;99.90;;;;;;4946262;28;20031;-63
2022/01/22 00:12:27;;;;;;;6.88;4.22;;;4.50;99.90;;;;;;4944543;28;20035;-62
2022/01/22 00:14:53;;;;;;;11.57;3.22;;;4.50;99.90;;;;;;4943163;28;20035;-62
2022/01/22 00:17:19;;;;;;;7.85;3.80;;;4.50;99.90;;;;;;4948350;29;20030;-63
2022/01/22 00:19:44;;;;;;;9.73;4.28;;;4.50;99.90;;;;;;4940795;29;20031;-62
2022/01/22 00:22:10;;;;;;;18.38;9.60;;;4.50;99.90;;;;;;4946103;28;20027;-63
2022/01/22 00:24:38;;;;;;;7.40;3.83;;;4.50;99.90;;;;;;4945065;29;20321;-63
2022/01/22 00:27:06;;;;;;;6.80;3.47;;;4.50;99.90;;;;;;4947317;28;20082;-63
2022/01/22 00:29:32;;;;;;;10.82;5.43;;;4.50;99.90;;;;;;4945978;28;20110;-62
2022/01/22 00:31:58;;;;;;;7.93;4.85;;;4.50;99.90;;;;;;4944772;28;20024;-62
2022/01/22 00:34:23;;;;;;;7.70;4.10;;;4.50;99.90;;;;;;4927453;29;20028;-63
2022/01/22 00:36:49;;;;;;;7.75;3.83;;;4.50;99.90;;;;;;4943144;28;20034;-63
2022/01/22 00:39:14;;;;;;;18.17;7.40;;;4.50;99.90;;;;;;4943494;28;20082;-62
2022/01/22 00:41:40;;;;;;;21.25;4.07;;;4.50;99.90;;;;;;4945501;28;20488;-62
2022/01/22 00:44:06;;;;;;;10.05;6.05;;;4.50;99.90;;;;;;4944085;28;20171;-62
2022/01/22 00:46:33;;;;;;;5.28;2.95;;;4.50;99.90;;;;;;4944452;28;20070;-63
2022/01/22 00:48:58;;;;;;;9.68;4.20;;;4.50;99.90;;;;;;4949391;28;20044;-63
2022/01/22 00:51:24;;;;;;;14.43;6.25;;;4.50;99.90;;;;;;4948032;28;20696;-62
2022/01/22 00:53:50;;;;;;;10.20;3.88;;;4.50;99.90;;;;;;4944590;28;20031;-63
2022/01/22 00:56:16;;;;;;;12.07;3.92;;;4.50;99.90;;;;;;4942916;28;20027;-62
2022/01/22 00:58:41;;;;;;;9.52;4.70;;;4.50;99.90;;;;;;4945339;29;20023;-61
2022/01/22 01:01:07;;;;;;;5.20;3.22;;;4.50;99.90;;;;;;4945106;28;20023;-63
2022/01/22 01:03:34;;;;;;;14.48;6.40;;;4.50;99.90;;;;;;4943258;28;20605;-62
2022/01/22 01:06:01;;;;;;;7.72;3.70;;;4.50;99.90;;;;;;4943204;29;20036;-62
2022/01/22 01:08:29;;;;;;;11.50;5.53;;;4.50;99.90;;;;;;4941411;28;20514;-63
2022/01/22 01:10:55;;;;;;;10.15;4.25;;;4.50;99.90;;;;;;4945988;29;20054;-63
2022/01/22 01:13:21;;;;;;;5.80;3.63;;;4.50;99.90;;;;;;4948835;28;20040;-62
2022/01/22 01:16:01;;;;;;;15.35;6.65;;;4.50;99.90;;;;;;4945825;28;20051;-63
2022/01/22 01:32:16;;;;;;;23.00;7.32;;;4.50;99.90;;;;;;4942059;28;20114;-62
2022/01/22 01:34:44;;;;;;;12.35;5.15;;;4.40;99.90;;;;;;4941187;28;20603;-63
2022/01/22 01:37:15;;;;;;;4.07;2.60;;;4.50;99.90;;;;;;4945764;28;20468;-63
2022/01/22 01:39:42;;;;;;;8.43;4.32;;;4.50;99.90;;;;;;4943261;28;20036;-62
2022/01/22 01:42:13;;;;;;;11.00;5.80;;;4.50;99.90;;;;;;4939908;28;20060;-62
2022/01/22 01:44:39;;;;;;;13.00;6.63;;;4.50;99.90;;;;;;4946110;28;20095;-62
2022/01/22 01:47:07;;;;;;;11.77;5.38;;;4.50;99.90;;;;;;4942099;28;20497;-62
2022/01/22 01:49:34;;;;;;;6.82;4.30;;;4.50;99.90;;;;;;4944840;28;20030;-62
2022/01/22 01:52:03;;;;;;;13.23;4.00;;;4.50;99.90;;;;;;4941860;28;20031;-63
2022/01/22 01:54:48;;;;;;;6.57;3.25;;;4.50;99.90;;;;;;4942377;28;20054;-62
2022/01/22 02:00:25;;;;;;;7.38;3.15;;;4.40;99.90;;;;;;4941931;29;20049;-63
2022/01/22 02:02:51;;;;;;;10.57;5.50;;;4.50;99.90;;;;;;4939390;29;20039;-62
2022/01/22 02:05:20;;;;;;;16.85;3.63;;;4.40;99.90;;;;;;4939397;29;20074;-62
2022/01/22 02:07:46;;;;;;;16.70;6.43;;;4.50;99.90;;;;;;4939507;29;20035;-62
2022/01/22 02:10:18;;;;;;;16.52;5.32;;;4.40;99.90;;;;;;4939468;29;20054;-62
2022/01/22 02:23:36;;;;;;;13.63;4.72;;;4.40;99.90;;;;;;4943328;29;20030;-62
2022/01/22 02:26:07;;;;;;;10.15;3.53;;;4.40;99.90;;;;;;4937724;29;20034;-62
2022/01/22 02:28:33;;;;;;;;;;;4.40;99.90;;;;;;4940465;28;20087;-63
2022/01/22 02:31:20;;;;;;;9.07;4.72;;;4.40;99.90;;;;;;4942393;28;19965;-62
2022/01/22 02:36:36;;;;;;;10.88;2.80;;;4.40;99.90;;;;;;4940398;28;20024;-64
2022/01/22 02:39:18;;;;;;;9.25;4.38;;;4.40;99.90;;;;;;4943651;28;20058;-62
2022/01/22 02:41:47;;;;;;;10.93;5.40;;;4.40;99.90;;;;;;4942129;28;20019;-62
2022/01/22 02:44:21;;;;;;;11.77;6.65;;;4.50;99.90;;;;;;4948329;28;20035;-63
2022/01/22 02:46:48;;;;;;;15.57;7.47;;;4.40;99.90;;;;;;4945466;28;20039;-63
2022/01/22 02:49:14;;;;;;;14.73;7.22;;;4.40;99.90;;;;;;4943154;28;20035;-62
2022/01/22 02:51:39;;;;;;;14.85;6.13;;;4.40;99.90;;;;;;4947716;28;20031;-62
2022/01/22 02:54:05;;;;;;;16.52;6.35;;;4.40;99.90;;;;;;4940453;28;20028;-63
2022/01/22 02:56:31;;;;;;;25.30;11.93;;;4.50;99.90;;;;;;4943893;28;20030;-63
2022/01/22 02:58:59;;;;;;;10.32;6.45;;;4.40;99.90;;;;;;4942649;28;20110;-62
2022/01/22 03:01:24;;;;;;;20.05;8.85;;;4.50;99.90;;;;;;4948061;28;20038;-62
2022/01/22 03:03:50;;;;;;;19.85;8.40;;;4.40;99.90;;;;;;4941632;28;20407;-63
2022/01/22 03:06:16;;;;;;;22.45;7.95;;;4.40;99.90;;;;;;4945959;28;20020;-62
2022/01/22 03:08:44;;;;;;;11.38;5.13;;;4.40;99.90;;;;;;4938386;28;20078;-63
2022/01/22 03:11:20;;;;;;;5.78;3.45;;;4.50;99.90;;;;;;4948577;28;20027;-62
2022/01/22 03:18:57;;;;;;;12.82;4.80;;;4.50;99.90;;;;;;4945560;28;20027;-62
2022/01/22 03:29:32;;;;;;;9.57;5.20;;;4.50;99.90;;;;;;4949917;28;20102;-62
2022/01/22 03:31:58;;;;;;;12.38;4.60;;;4.50;99.90;;;;;;4941117;28;20195;-62
2022/01/22 03:34:24;;;;;;;5.90;2.80;;;4.50;99.90;;;;;;4942209;28;20028;-62
2022/01/22 03:36:50;;;;;;;4.97;3.40;;;4.60;99.90;;;;;;4947561;28;20035;-62
2022/01/22 03:39:15;;;;;;;8.57;4.43;;;4.50;99.90;;;;;;4946967;28;20035;-63
2022/01/22 03:41:41;;;;;;;12.80;6.45;;;4.60;99.90;;;;;;4940972;28;20031;-62
2022/01/22 03:44:08;;;;;;;20.25;9.18;;;4.50;99.90;;;;;;4946775;28;20054;-63
2022/01/22 03:46:36;;;;;;;8.02;3.95;;;4.50;99.90;;;;;;4952198;28;20055;-62
2022/01/22 03:49:02;;;;;;;16.80;5.68;;;4.50;99.90;;;;;;4947538;28;20094;-62
2022/01/22 03:51:28;;;;;;;16.50;3.55;;;4.50;99.90;;;;;;4948474;28;20023;-63
2022/01/22 03:53:53;;;;;;;7.07;3.95;;;4.50;99.90;;;;;;4946492;28;20028;-63
2022/01/22 03:56:20;;;;;;;8.57;4.25;;;4.60;99.90;;;;;;4945284;28;20118;-62
2022/01/22 03:58:45;;;;;;;8.57;4.05;;;4.60;99.90;;;;;;4943135;28;20019;-63
2022/01/22 04:04:04;;;;;;;18.75;4.55;;;4.60;99.90;;;;;;4943716;28;20070;-62
2022/01/22 04:09:04;;;;;;;9.18;3.83;;;4.60;99.90;;;;;;4944481;28;20035;-63
2022/01/22 04:11:31;;;;;;;11.85;4.28;;;4.60;99.90;;;;;;4929588;28;20504;-63
2022/01/22 04:14:01;;;;;;;8.15;4.75;;;4.60;99.90;;;;;;4945207;28;20034;-63
2022/01/22 04:16:28;;;;;;;9.30;3.22;;;4.70;99.90;;;;;;4948714;28;20460;-62
2022/01/22 04:27:15;;;;;;;6.05;2.75;;;4.70;99.90;;;;;;4948648;28;20126;-62
2022/01/22 04:29:41;;;;;;;11.30;5.63;;;4.70;99.90;;;;;;4945890;28;20067;-62
2022/01/22 04:32:07;;;;;;;11.95;3.80;;;4.70;99.90;;;;;;4947497;28;20829;-63
2022/01/22 04:34:33;;;;;;;13.48;4.30;;;4.70;99.90;;;;;;4942443;28;20472;-62
2022/01/22 04:36:59;;;;;;;5.00;2.95;;;4.60;99.90;;;;;;4948300;28;20095;-63
2022/01/22 04:39:26;;;;;;;10.70;4.38;;;4.70;99.90;;;;;;4947032;29;20515;-62
2022/01/22 04:41:55;;;;;;;4.88;2.80;;;4.70;99.90;;;;;;4945115;28;20039;-62
2022/01/22 04:44:25;;;;;;;9.77;3.65;;;4.70;99.90;;;;;;4944371;28;20035;-63
2022/01/22 04:57:21;;;;;;;14.02;3.97;;;4.70;99.90;;;;;;4946403;28;20022;-62
2022/01/22 04:59:47;;;;;;;10.02;3.22;;;4.70;99.90;;;;;;4944657;28;20027;-63
2022/01/22 05:02:13;;;;;;;4.80;3.15;;;4.70;99.90;;;;;;4930826;28;20143;-62
2022/01/22 05:04:39;;;;;;;12.18;3.53;;;4.70;99.90;;;;;;4941718;28;20407;-62
2022/01/22 05:07:04;;;;;;;12.48;5.55;;;4.70;99.90;;;;;;4943051;28;20031;-63
2022/01/22 05:09:30;;;;;;;18.35;5.03;;;4.70;99.90;;;;;;4940398;28;20038;-62
2022/01/22 05:11:56;;;;;;;8.13;3.78;;;4.70;99.90;;;;;;4944481;28;20058;-62
2022/01/22 05:14:23;;;;;;;7.45;3.97;;;4.70;99.90;;;;;;4946949;28;20031;-63
2022/01/22 05:16:50;;;;;;;17.38;6.68;;;4.80;99.90;;;;;;4946125;28;20027;-62
2022/01/22 05:19:24;;;;;;;10.27;5.63;;;4.80;99.90;;;;;;4946332;28;20023;-62
2022/01/22 05:21:52;;;;;;;11.25;3.90;;;4.80;99.90;;;;;;4944658;28;20710;-62
2022/01/22 05:24:22;;;;;;;13.05;3.78;;;4.80;99.90;;;;;;4935798;28;20027;-63
2022/01/22 05:27:15;;;;;;;6.68;3.47;;;4.80;99.90;;;;;;4944628;28;20035;-62
2022/01/22 05:38:07;;;;;;;9.60;3.70;;;4.80;99.90;;;;;;4929548;29;20518;-62
2022/01/22 05:40:33;;;;;;;10.65;4.28;;;4.80;99.90;;;;;;4928867;29;20046;-63
2022/01/22 05:42:59;;;;;;;5.93;3.53;;;4.80;99.90;;;;;;4925621;29;20059;-63
2022/01/22 05:45:25;;;;;;;6.10;3.78;;;4.80;99.90;;;;;;4925452;29;20059;-63
2022/01/22 05:47:50;;;;;;;8.05;3.25;;;4.80;99.90;;;;;;4929970;28;20519;-63
2022/01/22 05:51:17;;;;;;;6.32;3.50;;;4.80;99.90;;;;;;4927792;29;20031;-63
2022/01/22 05:53:30;;;;;;;8.70;4.38;;;4.80;99.90;;;;;;4925047;29;20051;-62
2022/01/22 06:01:07;;;;;;;4.03;2.30;;;4.90;99.90;;;;;;4924150;28;20099;-62
2022/01/22 06:03:32;;;;;;;12.85;4.35;;;4.90;99.90;;;;;;4927024;29;20043;-62
2022/01/22 06:05:58;;;;;;;8.80;4.57;;;4.90;99.90;;;;;;4932384;29;20547;-63
2022/01/22 06:08:29;;;;;;;14.02;4.03;;;4.90;99.90;;;;;;4926184;28;20032;-62
2022/01/22 06:10:56;;;;;;;7.18;3.88;;;4.90;99.90;;;;;;4928607;29;20028;-62
2022/01/22 06:13:29;;;;;;;8.32;3.88;;;4.90;99.90;;;;;;4925456;29;20035;-62
2022/01/22 06:15:55;;;;;;;14.23;4.65;;;4.90;99.90;;;;;;4924082;29;20472;-63
2022/01/22 06:18:21;;;;;;;5.38;3.38;;;4.90;99.90;;;;;;4923381;29;20116;-62
2022/01/22 06:20:46;;;;;;;9.02;2.95;;;5.00;99.90;;;;;;4924914;29;20095;-63
2022/01/22 06:23:12;;;;;;;10.27;4.82;;;5.00;99.90;;;;;;4924559;29;20070;-62
2022/01/22 06:25:38;;;;;;;5.82;3.55;;;4.90;99.90;;;;;;4924642;29;20035;-62
2022/01/22 06:28:04;;;;;;;19.25;5.78;;;5.00;99.90;;;;;;4939545;28;20566;-63
2022/01/22 06:30:32;;;;;;;13.48;5.15;;;4.90;99.90;;;;;;4923472;29;20079;-63
2022/01/22 06:32:58;;;;;;;13.10;4.07;;;5.00;99.90;;;;;;4927920;29;20035;-62
2022/01/22 06:35:23;;;;;;;12.00;5.53;;;5.00;99.90;;;;;;4927127;29;20617;-62
2022/01/22 06:37:50;;;;;;;14.10;6.25;;;5.00;99.90;;;;;;4927730;29;20028;-62
2022/01/22 06:42:43;;;;;;;10.20;4.05;;;5.00;99.90;;;;;;4925151;29;20126;-63
2022/01/22 06:45:09;;;;;;;6.35;3.42;;;5.00;99.90;;;;;;4923788;29;20076;-63
2022/01/22 06:47:35;;;;;;;7.95;3.08;;;5.10;99.90;;;;;;4924977;29;20432;-63
2022/01/22 06:50:01;;;;;;;4.65;2.70;;;5.00;99.90;;;;;;4925984;29;20042;-63
2022/01/22 06:52:28;;;;;;;7.68;3.00;;;5.10;99.90;;;;;;4925212;28;20039;-63
2022/01/22 06:54:54;;;;;;;13.13;4.63;;;5.10;99.90;;;;;;4931743;29;20110;-62
2022/01/22 06:57:19;;;;;;;8.30;2.85;;;5.10;99.90;;;;;;4928708;29;20103;-63
2022/01/22 06:59:45;;;;;;;5.68;3.15;;;5.10;99.90;;;;;;4926704;29;20476;-63
2022/01/22 07:02:10;;;;;;;4.22;1.88;;;5.10;99.90;;;;;;4928702;29;20036;-63
2022/01/22 07:04:39;;;;;;;15.30;4.82;;;5.10;99.90;;;;;;4931798;29;20100;-63
2022/01/22 07:07:08;;;;;;;11.00;3.28;;;5.10;99.90;;;;;;4921538;29;20032;-62
2022/01/22 07:09:33;;;;;;;10.20;3.83;;;5.10;99.90;;;;;;4925312;29;20020;-63
2022/01/22 07:11:59;;;;;;;8.02;3.33;;;5.10;99.90;;;;;;4925372;29;20031;-63
2022/01/22 07:14:26;;;;;;;11.45;4.18;;;5.10;99.90;;;;;;4927859;29;20541;-62
2022/01/22 07:16:52;;;;;;;5.10;3.30;;;5.20;99.90;;;;;;4923311;29;20023;-62
2022/01/22 07:19:19;;;;;;;12.25;5.13;;;5.20;99.90;;;;;;4925999;29;20035;-63
2022/01/22 07:21:52;;;;;;;8.45;4.30;;;5.20;99.90;;;;;;4923065;29;20075;-63
2022/01/22 07:24:27;;;;;;;12.93;4.15;;;5.20;99.90;;;;;;4922815;29;20538;-62
2022/01/22 07:26:56;;;;;;;5.90;2.80;;;5.20;99.90;;;;;;4929090;29;20401;-63
2022/01/22 07:29:21;;;;;;;5.32;2.35;;;5.20;99.90;;;;;;4941845;28;20134;-63
2022/01/22 07:31:47;;;;;;;9.60;4.60;;;5.20;99.90;;;;;;4946449;28;20118;-63
2022/01/22 07:34:13;;;;;;;14.75;3.63;;;5.20;99.90;;;;;;4940986;28;20027;-63
2022/01/22 07:36:39;;;;;;;10.75;3.33;;;5.20;99.90;;;;;;4933450;28;20027;-62
2022/01/22 07:39:05;;;;;;;7.20;2.22;;;5.20;99.90;;;;;;4944426;28;20054;-62
2022/01/22 07:41:31;;;;;;;8.07;3.20;;;5.30;99.90;;;;;;4944468;28;20027;-62
2022/01/22 07:43:57;;;;;;;4.97;2.85;;;5.30;99.90;;;;;;4942808;28;20031;-63
2022/01/22 07:46:23;;;;;;;11.55;4.15;;;5.30;99.90;;;;;;4942327;28;20488;-63
2022/01/22 07:48:49;;;;;;;6.32;3.42;;;5.30;99.90;;;;;;4923639;28;20114;-63
2022/01/22 07:51:16;;;;;;;5.20;2.97;;;5.30;99.90;;;;;;4945163;28;20036;-63
2022/01/22 07:53:44;;;;;;;5.60;2.90;;;5.30;99.90;;;;;;4940862;28;20031;-63
2022/01/22 07:56:10;;;;;;;6.45;3.05;;;5.30;99.90;;;;;;4944592;28;20576;-62
2022/01/22 07:58:36;;;;;;;4.57;2.90;;;5.30;99.90;;;;;;4947315;28;20019;-63
2022/01/22 08:01:02;;;;;;;17.13;4.75;;;5.30;99.90;;;;;;4947221;28;20026;-63
2022/01/22 08:03:29;;;;;;;9.52;2.70;;;5.30;99.90;;;;;;4949386;28;20049;-63
2022/01/22 08:05:54;;;;;;;6.80;2.78;;;5.30;99.90;;;;;;4941073;28;20059;-63
2022/01/22 08:08:20;;;;;;;5.13;2.50;;;5.40;99.90;;;;;;4942553;28;20109;-63
2022/01/22 08:10:46;;;;;;;4.18;2.30;;;5.40;99.90;;;;;;4933850;29;20506;-62
2022/01/22 08:13:12;;;;;;;8.18;2.35;;;5.40;99.90;;;;;;4943170;28;20058;-63
2022/01/22 08:15:37;;;;;;;4.90;1.55;;;5.40;99.90;;;;;;4931265;28;20155;-62
2022/01/22 08:18:05;;;;;;;4.53;2.70;;;5.40;99.90;;;;;;4942115;28;20564;-63
2022/01/22 08:20:31;;;;;;;8.32;2.97;;;5.40;99.90;;;;;;4940242;28;20080;-62
2022/01/22 08:22:57;;;;;;;6.32;2.85;;;5.40;99.90;;;;;;4944453;28;20050;-62
2022/01/22 08:25:23;;;;;;;7.32;2.47;;;5.40;99.90;;;;;;4950120;28;20110;-62
2022/01/22 08:30:33;;;;;;;5.72;2.75;;;5.40;99.90;;;;;;4949876;28;20023;-62
2022/01/22 08:38:08;;;;;;;4.85;2.53;;;5.40;99.90;;;;;;4947318;28;20511;-63
2022/01/22 08:40:34;;;;;;;6.68;2.50;;;;;;;;;;4944036;28;20028;-62
2022/01/22 08:43:00;;;;;;;4.07;1.83;;;5.50;99.90;;;;;;4948662;28;20545;-63
2022/01/22 08:45:26;;;;;;;5.47;2.65;;;5.50;99.90;;;;;;4945150;28;20098;-63
2022/01/22 08:47:51;;;;;;;5.10;2.22;;;5.60;99.90;;;;;;4948416;28;20090;-63
2022/01/22 08:50:17;;;;;;;2.38;1.35;;;5.50;99.90;;;;;;4947138;28;20027;-62
2022/01/22 08:52:43;;;;;;;7.53;3.60;;;5.60;99.90;;;;;;4942791;28;20114;-63
2022/01/22 08:55:09;;;;;;;3.78;2.85;;;5.60;99.90;;;;;;4948664;28;20167;-62
2022/01/22 08:57:36;;;;;;;11.00;3.45;;;5.60;99.90;;;;;;4946322;28;20091;-63
2022/01/22 09:00:04;;;;;;;7.47;3.45;;;5.60;99.90;;;;;;4945753;28;20035;-63
2022/01/22 09:02:30;;;;;;;9.35;3.58;;;5.70;99.90;;;;;;4951407;28;20589;-62
2022/01/22 09:04:56;;;;;;;8.20;2.22;;;5.60;99.90;;;;;;4951169;28;20054;-63
2022/01/22 09:07:21;;;;;;;7.72;1.92;;;5.70;99.90;;;;;;4944793;28;20043;-62
2022/01/22 09:09:48;;;;;;;9.68;3.30;;;5.70;99.90;;;;;;4945420;28;20545;-62
2022/01/22 09:12:15;;;;;;;3.70;1.83;;;5.70;99.90;;;;;;4944747;28;20024;-63
2022/01/22 09:14:41;;;;;;;6.32;3.22;;;5.70;99.90;;;;;;4946079;28;20586;-64
2022/01/22 09:17:08;;;;;;;13.82;5.68;;;5.70;99.90;;;;;;4924557;29;20023;-63
2022/01/22 09:19:34;;;;;;;8.60;3.72;;;5.80;99.90;;;;;;4946344;28;20019;-63
2022/01/22 09:22:06;;;;;;;17.70;4.93;;;5.80;99.90;;;;;;4944360;28;20027;-63
2022/01/22 09:24:32;;;;;;;8.95;2.95;;;5.80;99.90;;;;;;4948154;28;20405;-63
2022/01/22 09:27:00;;;;;;;12.40;5.47;;;5.80;99.90;;;;;;4941436;28;20035;-63
2022/01/22 09:29:26;;;;;;;11.13;5.30;;;5.80;99.90;;;;;;4941291;28;20047;-63
2022/01/22 09:31:52;;;;;;;13.25;3.17;;;5.70;99.90;;;;;;4941269;28;20491;-63
2022/01/22 09:34:18;;;;;;;10.18;5.40;;;5.80;99.90;;;;;;4942049;28;20036;-63
2022/01/22 09:36:43;;;;;;;5.88;3.17;;;5.80;99.90;;;;;;4944000;28;20709;-63
2022/01/22 09:39:09;;;;;;;13.50;5.40;;;5.80;99.90;;;;;;4940997;28;20093;-63
2022/01/22 09:41:35;;;;;;;6.72;3.20;;;5.90;99.90;;;;;;4943796;28;20034;-64
2022/01/22 09:44:02;;;;;;;8.05;3.75;;;5.80;99.90;;;;;;4936736;28;20040;-63
2022/01/22 09:46:28;;;;;;;7.20;4.22;;;5.80;99.90;;;;;;4953263;28;20023;-63
2022/01/22 09:48:55;;;;;;;12.95;6.00;;;5.90;99.90;;;;;;4947413;28;20030;-63
2022/01/22 09:51:21;;;;;;;9.05;2.78;;;5.90;99.90;;;;;;4933567;28;20438;-63
2022/01/22 09:53:47;;;;;;;8.13;3.90;;;5.90;99.90;;;;;;4944794;28;20348;-63
2022/01/22 09:56:17;;;;;;;5.45;2.53;;;5.80;99.90;;;;;;4928876;28;20119;-63
2022/01/22 09:58:43;;;;;;;11.07;4.20;;;5.90;99.90;;;;;;4938501;28;20063;-63
2022/01/22 10:01:19;;;;;;;9.90;4.68;;;5.90;99.90;;;;;;4954221;28;20027;-63
2022/01/22 10:03:45;;;;;;;5.28;2.78;;;5.90;99.90;;;;;;4957069;28;20495;-63
2022/01/22 10:06:15;;;;;;;6.95;4.40;;;5.80;99.90;;;;;;4932468;28;20039;-63
2022/01/22 10:08:41;;;;;;;11.65;4.18;;;5.90;99.90;;;;;;4940638;28;20020;-63
2022/01/22 10:11:26;;;;;;;8.27;4.43;;;5.90;99.90;;;;;;4951603;28;20038;-63
2022/01/22 10:13:53;;;;;;;4.50;2.38;;;5.90;99.90;;;;;;4940974;28;20063;-63
2022/01/22 10:16:28;;;;;;;11.15;2.25;;;5.80;99.90;;;;;;4943291;28;20495;-63
2022/01/22 10:19:13;;;;;;;6.10;2.78;;;5.90;99.90;;;;;;4947148;28;20027;-63
2022/01/22 10:21:48;;;;;;;6.40;2.35;;;5.90;99.90;;;;;;4941959;28;20028;-63
2022/01/22 10:24:38;;;;;;;7.35;3.05;;;5.90;99.90;;;;;;4942862;28;20601;-63
2022/01/22 10:30:15;;;;;;;11.85;5.70;;;5.80;99.90;;;;;;4940724;28;20034;-63
2022/01/22 10:32:57;;;;;;;8.35;3.47;;;5.80;99.90;;;;;;4915511;28;20175;-63
2022/01/22 10:35:28;;;;;;;20.13;5.15;;;5.80;99.90;;;;;;4944663;28;20118;-63
2022/01/22 10:37:55;;;;;;;8.27;2.72;;;5.90;99.90;;;;;;4939680;28;20035;-63
2022/01/22 10:40:29;;;;;;;2.72;1.52;;;5.90;99.90;;;;;;4943270;28;20031;-63
2022/01/22 10:43:28;;;;;;;6.03;3.15;;;5.90;99.90;;;;;;4940529;28;20525;-63
2022/01/22 10:46:31;;;;;;;5.75;3.50;;;6.00;99.90;;;;;;4940553;28;20119;-63
2022/01/22 10:48:56;;;;;;;7.32;3.35;;;5.90;99.90;;;;;;4945526;28;20046;-63
2022/01/22 10:51:23;;;;;;;6.70;2.58;;;5.90;99.90;;;;;;4945993;28;20030;-63
2022/01/22 10:54:00;;;;;;;9.65;4.97;;;6.00;99.90;;;;;;4938955;28;20489;-63
2022/01/22 10:56:29;;;;;;;16.80;5.38;;;6.00;99.90;;;;;;4941983;28;20506;-63
2022/01/22 10:59:00;;;;;;;13.15;4.30;;;5.90;99.90;;;;;;4937392;28;20117;-63
2022/01/22 11:01:43;;;;;;;11.38;4.93;;;5.90;99.90;;;;;;4941022;28;20381;-63
2022/01/22 11:04:14;;;;;;;12.13;4.22;;;5.90;99.90;;;;;;4938046;28;20028;-63
2022/01/22 11:07:02;;;;;;;4.25;2.28;;;6.00;99.90;;;;;;4938715;28;20023;-64
2022/01/22 11:09:30;;;;;;;7.03;2.33;;;6.10;99.90;;;;;;4940000;28;20515;-63
2022/01/22 11:12:00;;;;;;;12.43;3.40;;;6.20;99.90;;;;;;4942047;28;20055;-63
2022/01/22 11:14:28;;;;;;;10.77;2.70;;;6.30;99.90;;;;;;4947991;28;20216;-63
2022/01/22 11:16:54;;;;;;;7.25;4.03;;;6.40;99.90;;;;;;4938648;28;20086;-63
2022/01/22 11:19:32;;;;;;;8.85;3.72;;;6.50;99.90;;;;;;4942036;28;20468;-63
2022/01/22 11:22:01;;;;;;;8.43;2.60;;;6.50;99.90;;;;;;4947612;28;20020;-64
2022/01/22 11:24:27;;;;;;;4.85;2.78;;;6.50;99.90;;;;;;4941151;28;20031;-63
2022/01/22 11:26:57;;;;;;;13.48;4.25;;;6.30;99.90;;;;;;4934823;28;20566;-63
2022/01/22 11:29:29;;;;;;;12.32;3.92;;;6.30;99.90;;;;;;4948482;28;20051;-63
2022/01/22 11:31:56;;;;;;;13.57;3.30;;;6.30;99.90;;;;;;4936530;28;20504;-63
2022/01/22 11:34:25;;;;;;;9.48;3.85;;;6.40;99.90;;;;;;4942148;28;20049;-64
2022/01/22 11:37:17;;;;;;;13.73;5.20;;;6.50;99.90;;;;;;4947475;28;20101;-63
2022/01/22 11:39:42;;;;;;;12.35;4.50;;;6.50;99.90;;;;;;4935842;28;20065;-63
2022/01/22 11:42:09;;;;;;;22.25;6.05;;;6.70;99.90;;;;;;4942949;28;20035;-63
2022/01/22 11:44:51;;;;;;;16.05;3.55;;;6.80;99.90;;;;;;4946653;28;20050;-63
2022/01/22 11:47:22;;;;;;;3.97;2.00;;;6.70;99.90;;;;;;4936830;28;20127;-63
2022/01/22 11:50:09;;;;;;;12.30;4.53;;;6.60;99.90;;;;;;4937256;28;20035;-64
2022/01/22 11:52:40;;;;;;;6.80;3.95;;;6.40;99.90;;;;;;4954091;28;20031;-63
2022/01/22 11:55:14;;;;;;;12.75;4.10;;;6.10;99.90;;;;;;4939742;28;20035;-63
2022/01/22 11:57:42;;;;;;;11.77;4.88;;;6.10;99.90;;;;;;4941817;28;20027;-63
2022/01/22 12:00:26;;;;;;;10.38;4.45;;;6.20;99.90;;;;;;4949814;28;20102;-63
2022/01/22 12:03:07;;;;;;;12.90;3.97;;;6.30;99.90;;;;;;4945844;28;20078;-62
2022/01/22 12:05:33;;;;;;;8.18;3.80;;;6.40;99.90;;;;;;4944545;28;20027;-63
2022/01/22 12:08:00;;;;;;;2.97;1.70;;;6.80;99.90;;;;;;4947956;28;20049;-62
2022/01/22 12:10:42;;;;;;;8.05;3.60;;;6.40;99.90;;;;;;4947492;28;20033;-63
2022/01/22 12:16:15;;;;;;;5.07;3.08;;;6.50;99.90;;;;;;4944537;28;20038;-63
2022/01/22 12:18:56;;;;;;;4.85;2.10;;;6.50;99.90;;;;;;4938899;28;20120;-62
2022/01/22 12:21:33;;;;;;;5.13;2.45;;;6.40;99.90;;;;;;4956401;28;20023;-62
2022/01/22 12:24:00;;;;;;;7.57;2.53;;;6.50;99.90;;;;;;4948029;28;20031;-63
2022/01/22 12:26:48;;;;;;;5.20;2.53;;;6.30;99.90;;;;;;4940902;28;20027;-62
2022/01/22 12:29:27;;;;;;;6.95;2.75;;;6.20;99.90;;;;;;4941426;28;20081;-62
2022/01/22 12:32:31;;;;;;;7.43;2.35;;;6.30;99.90;;;;;;4940735;28;20086;-62
2022/01/22 12:35:06;;;;;;;4.80;2.95;;;6.30;99.90;;;;;;4913774;29;20126;-63
2022/01/22 12:37:32;;;;;;;9.38;3.55;;;6.20;99.90;;;;;;4946609;28;20189;-62
2022/01/22 12:39:58;;;;;;;3.92;2.08;;;6.20;99.90;;;;;;4942252;29;20125;-63
2022/01/22 12:42:53;;;;;;;6.05;2.67;;;6.20;99.90;;;;;;4945550;29;20098;-62
2022/01/22 12:45:20;;;;;;;9.68;2.80;;;6.20;99.90;;;;;;4947430;28;20479;-63
2022/01/22 12:47:48;;;;;;;4.40;2.08;;;6.20;99.90;;;;;;4943865;28;20075;-63
2022/01/22 12:50:14;;;;;;;10.30;3.15;;;6.20;99.90;;;;;;4945215;28;20043;-62
2022/01/22 12:52:41;;;;;;;6.60;3.15;;;6.20;99.90;;;;;;4944459;28;20035;-63
2022/01/22 12:55:18;;;;;;;5.45;1.40;;;6.30;99.90;;;;;;4944234;28;20028;-63
2022/01/22 12:57:44;;;;;;;3.08;1.45;;;6.30;99.90;;;;;;4937983;28;20032;-63
2022/01/22 13:02:46;;;;;;;1.42;1.10;;;6.40;99.90;;;;;;4944799;28;20132;-62
2022/01/22 13:05:17;;;;;;;3.92;1.67;;;6.50;99.90;;;;;;4947851;28;20357;-63
2022/01/22 13:07:54;;;;;;;4.82;2.30;;;6.40;99.90;;;;;;4945986;28;20498;-62
2022/01/22 13:10:25;;;;;;;2.72;1.52;;;6.40;99.90;;;;;;4942945;28;20542;-63
2022/01/22 13:12:53;;;;;;;3.80;1.65;;;6.40;99.90;;;;;;4944665;28;20039;-63
2022/01/22 13:15:19;;;;;;;6.40;2.90;;;6.40;99.90;;;;;;4944712;28;20589;-62
2022/01/22 13:17:51;;;;;;;2.78;1.92;;;6.40;99.90;;;;;;4943827;28;20024;-62
2022/01/22 13:20:26;;;;;;;5.43;2.40;;;6.40;99.90;;;;;;4923283;28;20038;-62
2022/01/22 13:22:53;;;;;;;6.95;2.97;;;6.30;99.90;;;;;;4942018;28;20039;-62
2022/01/22 13:25:19;;;;;;;1.75;1.55;;;6.40;99.90;;;;;;4947082;28;20036;-63
2022/01/22 13:28:00;;;;;;;2.25;1.48;;;6.30;99.90;;;;;;4945571;28;20504;-63
2022/01/22 13:30:35;;;;;;;6.25;1.88;;;6.30;99.90;;;;;;4925459;28;20035;-63
2022/01/22 13:33:20;;;;;;;2.20;1.40;;;6.20;99.90;;;;;;4943571;28;20035;-63
2022/01/22 13:49:29;;;;;;;3.42;1.30;;;6.00;99.90;;;;;;4948806;28;20616;-62
2022/01/22 13:52:02;;;;;;;3.67;2.03;;;6.00;99.90;;;;;;4940683;28;20028;-62
2022/01/22 13:54:30;;;;;;;3.15;1.63;;;6.10;99.90;;;;;;4951278;28;20027;-63
2022/01/22 13:56:59;;;;;;;6.70;2.55;;;6.10;99.90;;;;;;4941128;28;20109;-63
2022/01/22 13:59:27;;;;;;;6.63;2.53;;;6.10;99.90;;;;;;4940730;28;20130;-62
2022/01/22 14:02:33;;;;;;;4.40;1.70;;;6.10;99.90;;;;;;4943644;28;20069;-63
2022/01/22 14:05:08;;;;;;;4.93;2.28;;;6.10;99.90;;;;;;4935454;28;20465;-63
2022/01/22 14:07:39;;;;;;;2.67;1.50;;;6.10;99.90;;;;;;4938604;28;20496;-63
2022/01/22 14:10:12;;;;;;;2.25;1.60;;;6.10;99.90;;;;;;4942646;28;20389;-63
2022/01/22 14:12:42;;;;;;;2.53;1.50;;;6.20;99.90;;;;;;4936764;28;20028;-62
2022/01/22 14:15:30;;;;;;;4.45;1.75;;;6.20;99.90;;;;;;4945406;28;20031;-62
2022/01/22 14:18:15;;;;;;;4.47;1.50;;;6.00;99.90;;;;;;4935619;28;20035;-62
2022/01/22 14:20:54;;;;;;;5.22;1.98;;;6.10;99.90;;;;;;4940834;28;20030;-62
2022/01/22 14:23:30;;;;;;;2.85;1.40;;;6.10;99.90;;;;;;4942913;28;20036;-63
2022/01/22 14:26:08;;;;;;;5.03;1.20;;;5.90;99.90;;;;;;4940523;28;20031;-63
2022/01/22 14:28:58;;;;;;;4.70;2.20;;;6.00;99.90;;;;;;4937785;28;20159;-63
2022/01/22 14:31:47;;;;;;;2.97;1.42;;;5.90;99.90;;;;;;4941420;28;20042;-63
2022/01/22 14:34:28;;;;;;;4.05;1.75;;;6.00;99.90;;;;;;4943063;28;20327;-63
2022/01/22 14:36:54;;;;;;;2.03;1.23;;;6.00;99.90;;;;;;4940279;28;20448;-63
2022/01/22 14:44:43;;;;;;;8.80;1.85;;;6.00;99.90;;;;;;4946362;28;20038;-63
2022/01/22 14:47:19;;;;;;;1.60;1.10;;;6.00;99.90;;;;;;4939324;28;20042;-63
2022/01/22 14:49:53;;;;;;;2.50;1.40;;;6.10;99.90;;;;;;4938707;28;20058;-63
2022/01/22 14:52:25;;;;;;;5.05;2.15;;;6.00;99.90;;;;;;4943984;28;20119;-63
2022/01/22 14:54:54;;;;;;;3.05;1.52;;;5.80;99.90;;;;;;4940740;28;20027;-63
2022/01/22 14:57:22;;;;;;;2.03;1.00;;;5.90;99.90;;;;;;4940274;29;20035;-63
2022/01/22 14:59:48;;;;;;;2.55;1.58;;;5.90;99.90;;;;;;4939601;28;20043;-63
2022/01/22 15:02:15;;;;;;;1.70;1.40;;;5.90;99.90;;;;;;4941963;28;20526;-63
2022/01/22 15:04:42;;;;;;;3.97;1.95;;;5.90;99.90;;;;;;4941924;28;20023;-63
2022/01/22 15:07:10;;;;;;;3.63;1.45;;;5.80;99.90;;;;;;4943957;28;20039;-63